Time;durP1;ratioP1;P1;durP2;ratioP2;P2;SDS_P1;SDS_P2;PMS_P1;PMS_P2;Temp;Humidity;BMP_temperature;BMP_pressure;BME280_temperature;BME280_humidity;BME280_pressure;Samples;Min_cycle;Max_cycle;Signal;HPM_P1;HPM_P2
2022/09/21 00:01:08;;;;;;;1.43;1.00;;;8.20;99.90;;;;;;4902055;29;20566;-85
2022/09/21 00:03:35;;;;;;;2.72;1.50;;;8.20;99.90;;;;;;4901770;29;20256;-83
2022/09/21 00:06:03;;;;;;;3.67;1.50;;;8.20;99.90;;;;;;4901758;29;20665;-87
2022/09/21 00:08:29;;;;;;;2.83;1.30;;;8.10;99.90;;;;;;4901735;29;20193;-87
2022/09/21 00:10:56;;;;;;;2.87;1.50;;;8.10;99.90;;;;;;4918949;29;20179;-93
2022/09/21 00:13:22;;;;;;;1.97;1.40;;;8.20;99.90;;;;;;4901831;29;20181;-89
2022/09/21 00:15:48;;;;;;;6.50;1.77;;;8.20;99.90;;;;;;4918562;29;20484;-88
2022/09/21 00:18:14;;;;;;;3.73;1.60;;;8.20;99.90;;;;;;4901893;29;20182;-87
2022/09/21 00:20:43;;;;;;;3.40;1.47;;;8.20;99.90;;;;;;4901112;29;20186;-92
2022/09/21 00:23:11;;;;;;;2.33;1.40;;;8.20;99.90;;;;;;4918630;29;20246;-85
2022/09/21 00:25:36;;;;;;;1.80;1.50;;;8.20;99.90;;;;;;4918472;29;20218;-88
2022/09/21 00:28:02;;;;;;;2.20;1.67;;;8.20;99.90;;;;;;4918422;29;20258;-90
2022/09/21 00:30:27;;;;;;;3.03;1.80;;;8.10;99.90;;;;;;4918529;29;20273;-87
2022/09/21 00:32:53;;;;;;;3.17;1.50;;;8.20;99.90;;;;;;4901452;29;20202;-85
2022/09/21 00:35:19;;;;;;;6.23;1.90;;;8.10;99.90;;;;;;4918080;29;20269;-84
2022/09/21 00:37:45;;;;;;;9.00;2.10;;;8.10;99.90;;;;;;4918132;29;20247;-87
2022/09/21 00:40:11;;;;;;;5.60;2.20;;;8.10;99.90;;;;;;4918149;29;20183;-85
2022/09/21 00:42:37;;;;;;;3.57;2.03;;;8.10;99.90;;;;;;4901015;29;20182;-83
2022/09/21 00:45:04;;;;;;;3.07;1.87;;;8.10;99.90;;;;;;4900764;29;20210;-84
2022/09/21 00:47:38;;;;;;;3.67;1.87;;;8.10;99.90;;;;;;4917934;29;20207;-87
2022/09/21 00:50:13;;;;;;;4.37;1.87;;;8.10;99.90;;;;;;4912101;29;20244;-85
2022/09/21 00:52:44;;;;;;;3.97;2.00;;;8.10;99.90;;;;;;4919862;29;20244;-84
2022/09/21 00:55:15;;;;;;;2.57;1.50;;;8.10;99.90;;;;;;4919789;29;20494;-87
2022/09/21 00:57:43;;;;;;;5.03;2.00;;;8.10;99.90;;;;;;4920027;29;20550;-85
2022/09/21 01:00:09;;;;;;;3.00;1.83;;;8.00;99.90;;;;;;4919629;29;20177;-84
2022/09/21 01:02:37;;;;;;;3.60;1.60;;;8.00;99.90;;;;;;4936806;29;20521;-88
2022/09/21 01:05:05;;;;;;;5.57;2.07;;;7.90;99.90;;;;;;4936379;29;20570;-86
2022/09/21 01:07:35;;;;;;;3.00;1.80;;;7.80;99.90;;;;;;4936787;29;20265;-83
2022/09/21 01:10:08;;;;;;;2.03;1.57;;;7.90;99.90;;;;;;4937892;29;20747;-85
2022/09/21 01:12:55;;;;;;;3.47;1.70;;;7.90;99.90;;;;;;4925906;29;20178;-85
2022/09/21 01:15:39;;;;;;;3.63;2.07;;;7.90;99.90;;;;;;4926129;29;20569;-83
2022/09/21 01:18:42;;;;;;;1.90;1.70;;;8.00;99.90;;;;;;4926128;29;20169;-91
2022/09/21 01:21:32;;;;;;;4.30;1.67;;;8.00;99.90;;;;;;4903989;29;20241;-84
2022/09/21 01:24:22;;;;;;;3.27;1.70;;;7.90;99.90;;;;;;4888302;29;20183;-84
2022/09/21 01:27:14;;;;;;;3.50;1.97;;;8.00;99.90;;;;;;4888457;29;20175;-84
2022/09/21 01:30:14;;;;;;;2.53;2.00;;;8.00;99.90;;;;;;4888394;29;20182;-89
2022/09/21 01:33:06;;;;;;;3.93;1.90;;;8.00;99.90;;;;;;4867782;29;20226;-90
2022/09/21 01:35:43;;;;;;;4.87;2.00;;;7.90;99.90;;;;;;4888094;29;20270;-85
2022/09/21 01:38:24;;;;;;;6.40;1.90;;;7.90;99.90;;;;;;4888221;29;20175;-84
2022/09/21 01:40:54;;;;;;;2.97;2.00;;;7.80;99.90;;;;;;4888328;29;20186;-92
2022/09/21 01:43:25;;;;;;;4.93;2.20;;;7.80;99.90;;;;;;4888657;29;20167;-87
2022/09/21 01:45:53;;;;;;;3.33;2.13;;;7.80;99.90;;;;;;4905313;29;20289;-91
2022/09/21 01:48:24;;;;;;;3.87;2.13;;;7.70;99.90;;;;;;4905220;29;20178;-86
2022/09/21 01:50:54;;;;;;;2.20;1.60;;;7.70;99.90;;;;;;4905615;29;20234;-91
2022/09/21 01:53:25;;;;;;;4.90;2.43;;;7.80;99.90;;;;;;4924343;29;20185;-90
2022/09/21 01:56:09;;;;;;;2.77;2.10;;;7.70;99.90;;;;;;4924174;29;20179;-93
2022/09/21 01:58:45;;;;;;;2.77;1.90;;;7.70;99.90;;;;;;4907425;29;20177;-90
2022/09/21 02:01:15;;;;;;;3.40;2.40;;;7.70;99.90;;;;;;4907678;29;20196;-90
2022/09/21 02:03:48;;;;;;;3.47;2.10;;;7.80;99.90;;;;;;4907187;29;20170;-92
2022/09/21 02:06:15;;;;;;;4.13;2.17;;;7.70;99.90;;;;;;4906831;29;20216;-89
2022/09/21 02:08:42;;;;;;;3.17;2.50;;;7.80;99.90;;;;;;4907570;29;20195;-90
2022/09/21 02:11:12;;;;;;;8.00;2.90;;;7.80;99.90;;;;;;4924586;29;20183;-91
2022/09/21 02:13:45;;;;;;;5.70;2.70;;;7.80;99.90;;;;;;4907405;29;20174;-91
2022/09/21 02:16:29;;;;;;;2.93;2.60;;;7.80;99.90;;;;;;4924342;29;20651;-91
2022/09/21 02:19:08;;;;;;;4.30;2.80;;;7.70;99.90;;;;;;4925004;29;20215;-86
2022/09/21 02:21:56;;;;;;;5.87;2.93;;;7.70;99.90;;;;;;4923566;29;20170;-91
2022/09/21 02:24:54;;;;;;;5.20;2.90;;;7.70;99.90;;;;;;4905892;29;20683;-85
2022/09/21 02:27:55;;;;;;;3.30;2.50;;;7.60;99.90;;;;;;4921383;29;20167;-90
2022/09/21 02:30:26;;;;;;;5.37;2.87;;;7.60;99.90;;;;;;4903917;29;20186;-85
2022/09/21 02:33:21;;;;;;;4.80;2.60;;;7.60;99.90;;;;;;4920849;29;20201;-86
2022/09/21 02:36:18;;;;;;;4.07;2.73;;;7.60;99.90;;;;;;4921128;29;20659;-89
2022/09/21 02:38:59;;;;;;;7.17;3.10;;;7.60;99.90;;;;;;4895434;29;20210;-85
2022/09/21 02:41:51;;;;;;;4.43;3.40;;;7.50;99.90;;;;;;4922766;29;20501;-91
2022/09/21 02:44:31;;;;;;;5.17;3.80;;;7.50;99.90;;;;;;4902678;29;20661;-85
2022/09/21 02:47:07;;;;;;;4.43;3.50;;;7.50;99.90;;;;;;4906316;29;20269;-83
2022/09/21 02:49:44;;;;;;;4.53;3.33;;;7.50;99.90;;;;;;4904651;29;20238;-84
2022/09/21 02:52:15;;;;;;;4.70;3.80;;;7.60;99.90;;;;;;4921534;29;20166;-91
2022/09/21 02:54:46;;;;;;;5.27;3.93;;;7.50;99.90;;;;;;4921017;29;20599;-87
2022/09/21 02:57:15;;;;;;;5.23;3.90;;;7.60;99.90;;;;;;4906215;29;20187;-83
2022/09/21 02:59:41;;;;;;;5.90;3.73;;;7.60;99.90;;;;;;4921115;29;20265;-87
2022/09/21 03:02:08;;;;;;;4.60;3.80;;;7.60;99.90;;;;;;4921855;29;20274;-89
2022/09/21 03:04:35;;;;;;;4.20;2.93;;;7.50;99.90;;;;;;4903377;29;20210;-85
2022/09/21 03:07:01;;;;;;;4.60;3.40;;;7.50;99.90;;;;;;4904896;29;20197;-87
2022/09/21 03:09:28;;;;;;;6.17;3.50;;;7.50;99.90;;;;;;4922323;29;20178;-85
2022/09/21 03:11:53;;;;;;;4.23;3.20;;;7.40;99.90;;;;;;4905389;29;20186;-84
2022/09/21 03:14:19;;;;;;;4.10;3.10;;;7.40;99.90;;;;;;4906658;29;20579;-87
2022/09/21 03:16:45;;;;;;;3.60;2.80;;;7.30;99.90;;;;;;4906332;29;20246;-87
2022/09/21 03:19:11;;;;;;;6.67;3.53;;;7.40;99.90;;;;;;4908413;29;20217;-90
2022/09/21 03:21:37;;;;;;;3.90;3.50;;;7.40;99.90;;;;;;4941756;29;20182;-87
2022/09/21 03:24:03;;;;;;;4.63;3.87;;;7.40;99.90;;;;;;4923163;29;20182;-88
2022/09/21 03:26:28;;;;;;;5.83;3.23;;;7.40;99.90;;;;;;4924571;29;20192;-88
2022/09/21 03:28:54;;;;;;;5.40;3.40;;;7.30;99.90;;;;;;4943771;29;20174;-86
2022/09/21 03:31:21;;;;;;;4.97;4.00;;;7.30;99.90;;;;;;4927241;29;20193;-85
2022/09/21 03:33:46;;;;;;;5.80;4.50;;;7.30;99.90;;;;;;4925508;29;20186;-87
2022/09/21 03:36:12;;;;;;;7.40;4.80;;;7.30;99.90;;;;;;4926530;29;20223;-83
2022/09/21 03:38:38;;;;;;;4.60;4.03;;;7.30;99.90;;;;;;4943556;29;20197;-88
2022/09/21 03:41:04;;;;;;;6.93;4.33;;;7.30;99.90;;;;;;4928021;29;20622;-92
2022/09/21 03:43:31;;;;;;;8.60;4.53;;;7.30;99.90;;;;;;4932178;29;20261;-92
2022/09/21 03:45:57;;;;;;;6.30;4.87;;;7.30;99.90;;;;;;4930607;29;20233;-95
2022/09/21 03:48:23;;;;;;;7.53;4.93;;;7.30;99.90;;;;;;4945083;29;20181;-93
2022/09/21 03:50:50;;;;;;;7.77;4.90;;;7.40;99.90;;;;;;4932584;29;20615;-88
2022/09/21 03:53:16;;;;;;;6.87;4.97;;;7.40;99.90;;;;;;4914810;29;20209;-95
2022/09/21 03:55:42;;;;;;;6.30;4.50;;;7.40;99.90;;;;;;4914489;29;20186;-90
2022/09/21 03:58:08;;;;;;;6.13;4.00;;;7.40;99.90;;;;;;4934286;29;20202;-96
2022/09/21 04:00:35;;;;;;;5.17;3.90;;;7.40;99.90;;;;;;4915261;29;20182;-96
2022/09/21 04:03:06;;;;;;;6.27;4.20;;;7.40;99.90;;;;;;4912913;29;20191;-95
2022/09/21 04:05:31;;;;;;;7.63;4.30;;;7.30;99.90;;;;;;4931165;29;20298;-93
2022/09/21 04:07:57;;;;;;;6.03;4.47;;;7.30;99.90;;;;;;4914860;29;20178;-94
2022/09/21 04:10:28;;;;;;;7.33;5.40;;;7.20;99.90;;;;;;4915674;29;20629;-90
2022/09/21 04:13:26;;;;;;;7.40;4.77;;;7.20;99.90;;;;;;4915023;29;20171;-94
2022/09/21 04:15:52;;;;;;;4.93;4.00;;;7.30;99.90;;;;;;4934961;29;20224;-95
2022/09/21 04:18:17;;;;;;;8.83;4.90;;;7.30;99.90;;;;;;4932228;29;20170;-95
2022/09/21 04:20:43;;;;;;;6.93;4.87;;;7.20;99.90;;;;;;4951847;29;20245;-93
2022/09/21 04:23:17;;;;;;;7.63;4.80;;;7.20;99.90;;;;;;4949566;29;20189;-93
2022/09/21 04:25:46;;;;;;;7.10;4.97;;;7.10;99.90;;;;;;4952018;29;20214;-95
2022/09/21 04:28:11;;;;;;;7.67;4.53;;;7.10;99.90;;;;;;4935513;29;20182;-94
2022/09/21 04:30:37;;;;;;;7.27;4.60;;;7.10;99.90;;;;;;4948749;29;20213;-84
2022/09/21 04:33:03;;;;;;;7.00;4.53;;;7.10;99.90;;;;;;4942133;29;20279;-84
2022/09/21 04:35:28;;;;;;;5.70;4.83;;;7.10;99.90;;;;;;4923829;29;20181;-88
2022/09/21 04:37:55;;;;;;;5.90;4.67;;;7.10;99.90;;;;;;4941188;29;20636;-87
2022/09/21 04:40:22;;;;;;;6.63;5.33;;;7.00;99.90;;;;;;4923990;29;20178;-85
2022/09/21 04:42:55;;;;;;;6.87;4.80;;;6.90;99.90;;;;;;4940188;29;20166;-82
2022/09/21 04:45:22;;;;;;;10.47;4.90;;;6.90;99.90;;;;;;4923319;29;20254;-84
2022/09/21 04:47:48;;;;;;;6.20;4.57;;;6.80;99.90;;;;;;4923014;29;20189;-87
2022/09/21 04:50:14;;;;;;;5.67;4.17;;;6.80;99.90;;;;;;4941000;29;20226;-85
2022/09/21 04:52:40;;;;;;;6.87;4.63;;;6.80;99.90;;;;;;4941001;29;20252;-82
2022/09/21 04:55:07;;;;;;;7.67;5.03;;;6.70;99.90;;;;;;4922905;29;20209;-83
2022/09/21 04:57:34;;;;;;;7.33;5.00;;;6.80;99.90;;;;;;4922024;29;20500;-86
2022/09/21 05:00:00;;;;;;;6.97;5.30;;;6.80;99.90;;;;;;4923091;29;20277;-87
2022/09/21 05:02:26;;;;;;;7.83;5.07;;;6.80;99.90;;;;;;4923055;29;20189;-82
2022/09/21 05:04:52;;;;;;;6.33;4.77;;;6.80;99.90;;;;;;4938885;29;20250;-81
2022/09/21 05:07:17;;;;;;;5.47;4.23;;;6.80;99.90;;;;;;4921493;29;20177;-83
2022/09/21 05:10:01;;;;;;;16.73;4.70;;;6.80;99.90;;;;;;4939776;29;20241;-86
2022/09/21 05:12:27;;;;;;;5.23;4.20;;;6.80;99.90;;;;;;4940139;29;20174;-82
2022/09/21 05:14:54;;;;;;;7.03;4.90;;;6.80;99.90;;;;;;4941626;29;20174;-84
2022/09/21 05:17:21;;;;;;;5.03;4.53;;;6.80;99.90;;;;;;4923247;29;20267;-83
2022/09/21 05:19:48;;;;;;;4.97;4.13;;;6.90;99.90;;;;;;4929478;29;20186;-82
2022/09/21 05:22:14;;;;;;;5.70;4.60;;;6.80;99.90;;;;;;4921130;29;20626;-83
2022/09/21 05:24:39;;;;;;;6.30;4.60;;;6.80;99.90;;;;;;4903119;29;20214;-82
2022/09/21 05:27:05;;;;;;;5.47;4.63;;;6.90;99.90;;;;;;4918696;29;20190;-82
2022/09/21 05:29:31;;;;;;;5.77;4.53;;;6.90;99.90;;;;;;4919609;29;20578;-87
2022/09/21 05:32:27;;;;;;;5.33;4.70;;;7.00;99.90;;;;;;4902174;29;20269;-89
2022/09/21 05:35:22;;;;;;;11.43;4.77;;;7.00;99.90;;;;;;4918917;29;20194;-85
2022/09/21 05:38:15;;;;;;;6.33;4.20;;;7.00;99.90;;;;;;4902227;29;20265;-83
2022/09/21 05:40:41;;;;;;;8.97;4.30;;;7.00;99.90;;;;;;4903529;29;20193;-88
2022/09/21 05:43:08;;;;;;;9.77;4.20;;;7.10;99.90;;;;;;4920031;29;20175;-82
2022/09/21 05:45:35;;;;;;;4.37;3.87;;;7.10;99.90;;;;;;4905041;29;20206;-85
2022/09/21 05:48:15;;;;;;;4.50;3.97;;;7.00;99.90;;;;;;4922558;29;20175;-85
2022/09/21 05:51:10;;;;;;;4.60;3.83;;;7.00;99.90;;;;;;4920349;29;20318;-83
2022/09/21 05:53:49;;;;;;;13.97;4.43;;;7.10;99.90;;;;;;4885424;29;20202;-82
2022/09/21 05:56:33;;;;;;;4.90;4.33;;;7.10;99.90;;;;;;4919999;29;20622;-83
2022/09/21 05:59:21;;;;;;;9.87;4.20;;;7.10;99.90;;;;;;4924397;29;20223;-93
2022/09/21 06:01:49;;;;;;;10.30;4.20;;;7.20;99.90;;;;;;4908095;29;20198;-84
2022/09/21 06:04:15;;;;;;;14.80;4.60;;;7.20;99.90;;;;;;4924331;29;20606;-85
2022/09/21 06:06:41;;;;;;;11.93;4.57;;;7.20;99.90;;;;;;4925934;29;20183;-86
2022/09/21 06:09:07;;;;;;;6.57;4.60;;;7.20;99.90;;;;;;4909689;29;20256;-83
2022/09/21 06:11:33;;;;;;;5.70;4.47;;;7.20;99.90;;;;;;4924443;29;20214;-82
2022/09/21 06:14:01;;;;;;;5.60;4.80;;;7.20;99.90;;;;;;4908778;29;20185;-87
2022/09/21 06:16:35;;;;;;;6.97;4.80;;;7.30;99.90;;;;;;4906948;29;20189;-83
2022/09/21 06:19:00;;;;;;;5.20;4.50;;;7.40;99.90;;;;;;4922234;29;20221;-85
2022/09/21 06:21:26;;;;;;;7.90;4.73;;;7.40;99.90;;;;;;4905612;29;20218;-88
2022/09/21 06:23:51;;;;;;;6.13;4.63;;;7.40;99.90;;;;;;4904947;29;20190;-87
2022/09/21 06:26:17;;;;;;;10.90;4.90;;;7.40;99.90;;;;;;4921293;29;20210;-85
2022/09/21 06:28:43;;;;;;;6.00;5.23;;;7.40;99.90;;;;;;4921499;29;20513;-87
2022/09/21 06:31:09;;;;;;;11.47;5.63;;;7.50;99.90;;;;;;4921212;29;20175;-92
2022/09/21 06:33:36;;;;;;;10.20;5.60;;;7.50;99.90;;;;;;4904424;29;20182;-92
2022/09/21 06:36:02;;;;;;;9.63;5.57;;;7.60;99.90;;;;;;4920598;29;20249;-87
2022/09/21 06:38:28;;;;;;;7.23;5.90;;;7.70;99.90;;;;;;4920725;29;20170;-91
2022/09/21 06:40:54;;;;;;;7.47;5.93;;;7.70;99.90;;;;;;4920546;29;20227;-88
2022/09/21 06:43:20;;;;;;;7.47;6.50;;;7.80;99.90;;;;;;4903699;29;20189;-90
2022/09/21 06:45:54;;;;;;;12.57;7.50;;;7.90;99.90;;;;;;4903616;29;20677;-85
2022/09/21 06:48:20;;;;;;;8.53;6.43;;;8.00;99.90;;;;;;4920414;29;20182;-90
2022/09/21 06:50:46;;;;;;;9.57;7.20;;;8.10;99.90;;;;;;4937238;29;20233;-85
2022/09/21 06:53:12;;;;;;;9.33;7.00;;;8.20;99.90;;;;;;4939155;29;20243;-83
2022/09/21 06:55:38;;;;;;;9.70;7.25;;;8.20;99.90;;;;;;4921934;29;20182;-85
2022/09/21 06:58:04;;;;;;;11.17;7.40;;;8.30;99.90;;;;;;4938940;29;20180;-86
2022/09/21 07:00:31;;;;;;;9.10;6.97;;;8.30;99.90;;;;;;4939001;29;20182;-81
2022/09/21 07:02:56;;;;;;;13.80;8.20;;;8.50;99.90;;;;;;4922079;29;20182;-84
2022/09/21 07:05:22;;;;;;;11.17;8.50;;;8.50;99.90;;;;;;4921510;29;20653;-83
2022/09/21 07:07:48;;;;;;;14.52;8.65;;;8.60;99.90;;;;;;4938259;29;20166;-87
2022/09/21 07:10:14;;;;;;;10.98;8.00;;;8.60;99.90;;;;;;4938667;29;20548;-84
2022/09/21 07:12:40;;;;;;;10.63;7.77;;;8.60;99.90;;;;;;4938765;29;20618;-84
2022/09/21 07:15:06;;;;;;;11.33;8.60;;;8.70;99.90;;;;;;4938444;29;20209;-83
2022/09/21 07:17:34;;;;;;;11.10;8.20;;;8.70;99.90;;;;;;4921275;29;20185;-83
2022/09/21 07:20:01;;;;;;;11.68;8.40;;;8.70;99.90;;;;;;4927187;29;20187;-83
2022/09/21 07:22:33;;;;;;;14.15;8.65;;;8.70;99.90;;;;;;4919462;29;20171;-83
2022/09/21 07:24:59;;;;;;;11.07;8.13;;;8.70;99.90;;;;;;4919125;29;20657;-84
2022/09/21 07:27:27;;;;;;;13.38;8.90;;;8.80;99.90;;;;;;4902367;29;20185;-83
2022/09/21 07:29:52;;;;;;;15.18;8.43;;;8.80;99.90;;;;;;4902190;29;20179;-83
2022/09/21 07:32:19;;;;;;;10.88;8.10;;;8.90;99.90;;;;;;4919212;29;20185;-83
2022/09/21 07:34:45;;;;;;;12.65;7.93;;;8.90;99.90;;;;;;4919079;29;20575;-84
2022/09/21 07:37:12;;;;;;;12.55;7.90;;;8.90;99.90;;;;;;4901967;29;20197;-84
2022/09/21 07:39:37;;;;;;;11.43;7.38;;;8.90;99.90;;;;;;4919124;29;20235;-84
2022/09/21 07:42:04;;;;;;;11.67;7.77;;;9.00;99.90;;;;;;4919050;29;20187;-83
2022/09/21 07:44:30;;;;;;;17.38;8.10;;;9.00;99.90;;;;;;4901822;29;20221;-84
2022/09/21 07:46:56;;;;;;;15.05;7.70;;;9.10;99.90;;;;;;4902075;29;20186;-83
2022/09/21 07:49:21;;;;;;;12.10;7.00;;;9.10;99.90;;;;;;4924846;29;20304;-85
2022/09/21 07:51:47;;;;;;;11.23;7.10;;;9.10;99.90;;;;;;4937769;29;20184;-83
2022/09/21 07:54:14;;;;;;;10.43;7.20;;;9.20;99.90;;;;;;4937570;29;20246;-82
2022/09/21 07:56:41;;;;;;;13.93;7.38;;;9.20;99.90;;;;;;4920777;29;20273;-84
2022/09/21 07:59:07;;;;;;;12.10;6.85;;;9.30;99.90;;;;;;4920673;29;20178;-84
2022/09/21 08:01:40;;;;;;;11.65;8.50;;;9.50;99.90;;;;;;4937684;29;20177;-84
2022/09/21 08:04:10;;;;;;;11.45;8.00;;;9.60;99.90;;;;;;4937664;29;20174;-83
2022/09/21 08:06:38;;;;;;;9.85;8.65;;;9.70;99.90;;;;;;4937425;29;20182;-84
2022/09/21 08:09:05;;;;;;;17.42;9.48;;;9.70;99.90;;;;;;4937642;29;20636;-86
2022/09/21 08:11:32;;;;;;;15.88;9.70;;;9.80;99.90;;;;;;4937611;29;20186;-83
2022/09/21 08:14:02;;;;;;;15.48;8.27;;;9.80;99.90;;;;;;4920341;29;20178;-83
2022/09/21 08:16:29;;;;;;;16.90;8.55;;;9.90;99.90;;;;;;4937475;29;20609;-83
2022/09/21 08:18:55;;;;;;;12.77;8.95;;;10.00;99.90;;;;;;4917896;29;20623;-85
2022/09/21 08:21:21;;;;;;;12.70;8.13;;;10.10;99.90;;;;;;4900449;29;20185;-83
2022/09/21 08:23:48;;;;;;;13.73;7.43;;;10.20;99.90;;;;;;4918357;29;20614;-83
2022/09/21 08:26:19;;;;;;;13.70;8.10;;;10.20;99.90;;;;;;4901187;29;20210;-85
2022/09/21 08:28:50;;;;;;;13.48;8.43;;;10.30;99.90;;;;;;4918750;29;20163;-84
2022/09/21 08:31:18;;;;;;;13.63;7.53;;;10.30;99.90;;;;;;4901540;29;20190;-83
2022/09/21 08:33:45;;;;;;;11.73;8.13;;;10.30;99.90;;;;;;4901148;29;20207;-90
2022/09/21 08:36:10;;;;;;;11.05;7.18;;;10.40;99.90;;;;;;4917972;29;20618;-84
2022/09/21 08:38:38;;;;;;;12.75;6.10;;;10.30;99.90;;;;;;4901115;29;20192;-82
2022/09/21 08:41:13;;;;;;;13.68;7.47;;;10.40;99.90;;;;;;4918240;29;20179;-90
2022/09/21 08:43:44;;;;;;;10.43;6.72;;;10.40;99.90;;;;;;4918175;29;20239;-88
2022/09/21 08:46:19;;;;;;;11.68;7.57;;;10.50;99.90;;;;;;4918044;29;20206;-84
2022/09/21 08:49:05;;;;;;;10.32;6.93;;;10.50;99.90;;;;;;4900793;29;20284;-82
2022/09/21 08:51:35;;;;;;;13.85;7.63;;;10.60;99.90;;;;;;4917918;29;20174;-83
2022/09/21 08:54:11;;;;;;;12.35;6.93;;;10.60;99.90;;;;;;4900999;29;20209;-84
2022/09/21 08:56:36;;;;;;;17.45;7.45;;;10.70;99.90;;;;;;4918008;29;20178;-82
2022/09/21 08:59:02;;;;;;;13.15;7.90;;;10.80;99.90;;;;;;4917971;29;20170;-85
2022/09/21 09:01:44;;;;;;;17.48;7.53;;;10.90;99.90;;;;;;4918238;29;20244;-82
2022/09/21 09:04:32;;;;;;;6.70;5.90;;;10.90;99.90;;;;;;4917760;29;20167;-84
2022/09/21 09:07:33;;;;;;;11.18;6.75;;;11.00;99.90;;;;;;4900643;29;20305;-83
2022/09/21 09:10:32;;;;;;;10.27;6.63;;;11.10;99.90;;;;;;4886907;29;20190;-88
2022/09/21 09:13:30;;;;;;;7.93;5.38;;;11.20;99.90;;;;;;4917820;29;20557;-82
2022/09/21 09:16:06;;;;;;;8.13;6.40;;;11.30;99.90;;;;;;4917908;29;20174;-83
2022/09/21 09:18:48;;;;;;;9.05;5.70;;;11.40;99.90;;;;;;4917678;29;20177;-83
2022/09/21 09:21:25;;;;;;;12.73;6.05;;;11.50;99.90;;;;;;4917618;29;20159;-85
2022/09/21 09:24:09;;;;;;;7.80;4.63;;;11.60;99.90;;;;;;4900683;29;20967;-84
2022/09/21 09:27:15;;;;;;;8.77;4.38;;;11.60;99.90;;;;;;4917677;29;20214;-83
2022/09/21 09:30:03;;;;;;;7.63;4.53;;;11.80;99.90;;;;;;4917773;29;20178;-87
2022/09/21 09:32:40;;;;;;;8.00;4.07;;;11.80;99.90;;;;;;4903143;29;20178;-83
2022/09/21 09:35:28;;;;;;;4.97;4.05;;;11.90;99.90;;;;;;4921388;29;20563;-83
2022/09/21 09:38:27;;;;;;;9.48;4.50;;;12.00;99.90;;;;;;4921531;29;20175;-91
2022/09/21 09:41:14;;;;;;;6.28;3.28;;;12.10;99.90;;;;;;4899009;29;20286;-83
2022/09/21 09:44:05;;;;;;;6.13;3.22;;;12.20;99.90;;;;;;4904777;29;20174;-91
2022/09/21 09:46:57;;;;;;;6.55;3.22;;;12.30;99.90;;;;;;4921628;29;20217;-83
2022/09/21 09:49:58;;;;;;;5.78;2.90;;;12.40;99.90;;;;;;4899628;29;20615;-85
2022/09/21 09:52:25;;;;;;;4.95;2.75;;;12.40;99.90;;;;;;4921577;29;20506;-91
2022/09/21 09:54:53;;;;;;;5.60;2.15;;;12.50;99.90;;;;;;4921495;29;20235;-86
2022/09/21 09:57:28;;;;;;;7.53;1.98;;;12.60;99.90;;;;;;4922113;29;20219;-89
2022/09/21 10:00:00;;;;;;;5.72;2.08;;;12.70;99.90;;;;;;4905268;29;20230;-90
2022/09/21 10:02:28;;;;;;;4.15;2.22;;;12.80;99.90;;;;;;4906017;29;20186;-85
2022/09/21 10:05:05;;;;;;;3.25;1.80;;;12.90;99.90;;;;;;4923248;29;20190;-84
2022/09/21 10:07:47;;;;;;;5.43;1.83;;;12.90;99.90;;;;;;4906729;29;20577;-85
2022/09/21 10:10:28;;;;;;;3.45;1.63;;;13.00;99.90;;;;;;4906836;29;20201;-86
2022/09/21 10:12:55;;;;;;;8.88;1.40;;;13.00;99.90;;;;;;4905587;29;20231;-88
2022/09/21 10:15:23;;;;;;;3.20;1.50;;;13.10;99.90;;;;;;4921982;29;20178;-85
2022/09/21 10:18:17;;;;;;;3.63;1.67;;;13.20;99.90;;;;;;4905577;29;20178;-92
2022/09/21 10:21:05;;;;;;;5.53;1.90;;;13.30;99.90;;;;;;4904266;29;20217;-87
2022/09/21 10:23:31;;;;;;;4.68;2.28;;;13.40;99.90;;;;;;4922888;29;20254;-90
2022/09/21 10:26:11;;;;;;;3.90;2.10;;;13.50;99.90;;;;;;4905572;29;20297;-91
2022/09/21 10:28:58;;;;;;;5.82;2.15;;;13.60;99.90;;;;;;4906111;29;20182;-92
2022/09/21 10:31:30;;;;;;;4.70;1.55;;;13.60;99.90;;;;;;4906112;29;20220;-92
2022/09/21 10:34:02;;;;;;;2.72;1.65;;;13.70;99.90;;;;;;4922783;29;20231;-91
2022/09/21 10:36:31;;;;;;;2.40;1.33;;;13.80;99.90;;;;;;4922476;29;20175;-88
2022/09/21 10:39:16;;;;;;;5.82;1.13;;;13.80;99.90;;;;;;4921628;29;20182;-94
2022/09/21 10:41:48;;;;;;;2.92;1.00;;;13.80;99.90;;;;;;4922698;29;20170;-86
2022/09/21 10:44:19;;;;;;;3.22;0.98;;;13.90;99.90;;;;;;4920934;29;20171;-88
2022/09/21 10:46:47;;;;;;;5.05;1.25;;;13.90;99.90;;;;;;4904414;29;20206;-88
2022/09/21 10:49:27;;;;;;;4.07;1.20;;;14.10;99.90;;;;;;4909477;29;20626;-90
2022/09/21 10:51:56;;;;;;;2.42;0.90;;;14.10;99.90;;;;;;4939672;29;20197;-92
2022/09/21 10:54:26;;;;;;;2.72;0.75;;;14.10;99.90;;;;;;4924372;29;20233;-94
2022/09/21 10:56:56;;;;;;;1.15;0.65;;;14.20;99.90;;;;;;4923652;29;20543;-91
2022/09/21 10:59:31;;;;;;;4.93;1.23;;;14.30;99.90;;;;;;4923852;29;20639;-89
2022/09/21 11:01:58;;;;;;;4.05;1.10;;;14.30;99.90;;;;;;4924370;29;20193;-96
2022/09/21 11:04:47;;;;;;;5.95;1.13;;;14.30;99.90;;;;;;4925366;29;20178;-91
2022/09/21 11:07:46;;;;;;;3.20;0.98;;;14.30;99.90;;;;;;4925145;29;20651;-95
2022/09/21 11:10:26;;;;;;;4.30;0.80;;;14.40;99.90;;;;;;4943869;29;20209;-95
2022/09/21 11:13:29;;;;;;;4.63;0.90;;;14.50;99.90;;;;;;4942461;29;20181;-93
2022/09/21 11:15:55;;;;;;;2.85;0.73;;;14.60;99.90;;;;;;4925068;29;20174;-95
2022/09/21 11:18:27;;;;;;;4.30;0.70;;;14.80;99.90;;;;;;4925202;29;20189;-95
2022/09/21 11:20:58;;;;;;;3.85;1.17;;;15.00;99.90;;;;;;4906737;29;20186;-93
2022/09/21 11:23:26;;;;;;;2.03;1.20;;;15.00;99.90;;;;;;4908616;29;20179;-93
2022/09/21 11:26:45;;;;;;;1.88;1.00;;;15.00;99.90;;;;;;4908234;29;20214;-95
2022/09/21 11:29:23;;;;;;;3.28;1.25;;;15.10;99.90;;;;;;4874543;29;20191;-91
2022/09/21 11:31:56;;;;;;;3.83;1.17;;;15.10;99.90;;;;;;4921886;29;20166;-93
2022/09/21 11:34:48;;;;;;;2.80;1.15;;;15.10;99.90;;;;;;4904432;29;20269;-91
2022/09/21 11:37:49;;;;;;;2.08;1.00;;;15.00;99.90;;;;;;4922530;29;20171;-91
2022/09/21 11:40:53;;;;;;;2.47;0.90;;;14.80;99.90;;;;;;4894967;29;20191;-87
2022/09/21 11:43:58;;;;;;;4.35;1.10;;;14.50;99.90;;;;;;4919422;29;20178;-87
2022/09/21 11:46:55;;;;;;;4.30;1.05;;;14.40;99.90;;;;;;4903580;29;20214;-86
2022/09/21 11:49:26;;;;;;;4.15;1.02;;;14.50;99.90;;;;;;4897404;29;20237;-85
2022/09/21 11:52:20;;;;;;;2.92;1.20;;;14.60;99.90;;;;;;4920337;29;20204;-86
2022/09/21 11:55:04;;;;;;;3.28;0.90;;;14.50;99.90;;;;;;4902556;29;20187;-87
2022/09/21 11:57:37;;;;;;;4.80;0.80;;;14.70;99.90;;;;;;4903859;29;20265;-89
2022/09/21 12:00:14;;;;;;;5.45;1.05;;;14.90;99.90;;;;;;4920070;29;20231;-88
2022/09/21 12:02:52;;;;;;;3.22;0.77;;;15.20;99.90;;;;;;4902876;29;20183;-88
2022/09/21 12:05:55;;;;;;;2.67;1.08;;;15.50;99.90;;;;;;4902119;29;20244;-88
2022/09/21 12:08:48;;;;;;;3.25;0.90;;;15.80;99.90;;;;;;4919493;29;20185;-85
2022/09/21 12:11:36;;;;;;;2.60;0.98;;;16.00;99.90;;;;;;4902537;29;20230;-87
2022/09/21 12:14:27;;;;;;;1.45;0.47;;;16.00;99.90;;;;;;4902315;29;20178;-86
2022/09/21 12:17:20;;;;;;;2.03;0.47;;;16.10;99.90;;;;;;4902889;29;20182;-89
2022/09/21 12:20:17;;;;;;;1.13;0.40;;;16.10;97.30;;;;;;4903031;29;20222;-90
2022/09/21 12:22:46;;;;;;;4.13;0.80;;;16.10;96.90;;;;;;4920032;29;20174;-89
2022/09/21 12:25:18;;;;;;;1.83;0.68;;;16.10;99.10;;;;;;4902527;29;20262;-89
2022/09/21 12:27:57;;;;;;;2.00;0.45;;;16.20;99.00;;;;;;4902337;29;20645;-91
2022/09/21 12:30:23;;;;;;;1.60;0.55;;;16.30;98.30;;;;;;4919307;29;20167;-89
2022/09/21 12:33:04;;;;;;;4.47;0.60;;;16.40;99.90;;;;;;4902451;29;20285;-92
2022/09/21 12:35:40;;;;;;;3.08;0.75;;;16.60;99.90;;;;;;4902535;29;20179;-91
2022/09/21 12:38:41;;;;;;;2.95;0.90;;;16.80;99.90;;;;;;4902875;29;20269;-90
2022/09/21 12:41:33;;;;;;;3.40;0.90;;;16.80;98.10;;;;;;4903734;29;20173;-92
2022/09/21 12:44:53;;;;;;;5.25;0.68;;;16.70;97.40;;;;;;4902487;29;20685;-88
2022/09/21 12:47:41;;;;;;;2.63;0.88;;;16.80;99.90;;;;;;4861407;29;20201;-94
2022/09/21 12:50:28;;;;;;;1.88;0.55;;;16.80;96.40;;;;;;4873492;29;20330;-90
2022/09/21 12:52:56;;;;;;;4.35;0.77;;;16.90;96.40;;;;;;4911872;29;20197;-92
2022/09/21 12:55:45;;;;;;;7.00;0.80;;;16.80;95.10;;;;;;4921740;29;20264;-91
2022/09/21 12:58:35;;;;;;;1.77;0.60;;;16.90;95.90;;;;;;4922302;29;20178;-91
2022/09/21 13:01:19;;;;;;;1.13;0.38;;;16.90;96.40;;;;;;4922284;29;20212;-90
2022/09/21 13:04:22;;;;;;;0.57;0.40;;;16.90;96.40;;;;;;4921958;29;20515;-89
2022/09/21 13:09:56;;;;;;;1.95;0.50;;;17.00;96.30;;;;;;4938421;29;20202;-92
2022/09/21 13:12:32;;;;;;;1.25;0.52;;;17.10;94.90;;;;;;4921412;29;20209;-91
2022/09/21 13:15:23;;;;;;;0.93;0.32;;;17.20;95.50;;;;;;4938613;29;20154;-90
2022/09/21 13:18:04;;;;;;;1.45;0.50;;;17.30;95.80;;;;;;4921144;29;20241;-91
2022/09/21 13:20:38;;;;;;;1.70;0.50;;;17.30;94.10;;;;;;4906319;29;20541;-91
2022/09/21 13:23:04;;;;;;;0.55;0.40;;;17.30;93.60;;;;;;4901690;29;20186;-91
2022/09/21 13:25:36;;;;;;;3.22;0.50;;;17.30;94.90;;;;;;4901937;29;20282;-92
2022/09/21 13:28:12;;;;;;;1.05;0.50;;;17.40;95.70;;;;;;4902148;29;20182;-90
2022/09/21 13:30:41;;;;;;;3.35;0.60;;;17.50;94.90;;;;;;4919178;29;20625;-89